createdAt,value
2022-10-14T00:02:01.159Z,95313.50
2022-10-14T00:04:28.015Z,95321.31
2022-10-14T00:06:54.660Z,95311.19
2022-10-14T00:09:21.263Z,95324.25
2022-10-14T00:11:48.051Z,95318.50
2022-10-14T00:14:18.516Z,95299.13
2022-10-14T00:16:48.096Z,95308.38
2022-10-14T00:19:15.708Z,95295.16
2022-10-14T00:21:45.458Z,95303.22
2022-10-14T00:24:14.474Z,95310.34
2022-10-14T00:26:41.575Z,95305.81
2022-10-14T00:29:13.383Z,95303.84
2022-10-14T00:31:40.395Z,95293.22
2022-10-14T00:34:07.131Z,95298.69
2022-10-14T00:36:33.900Z,95298.53
2022-10-14T00:39:00.561Z,95306.66
2022-10-14T00:41:30.932Z,95282.78
2022-10-14T00:44:12.876Z,95299.28
2022-10-14T00:46:48.531Z,95295.50
2022-10-14T00:49:18.075Z,95290.31
2022-10-14T00:52:17.336Z,95295.97
2022-10-14T00:55:19.747Z,95293.28
2022-10-14T00:57:46.591Z,95263.03
2022-10-14T01:00:16.475Z,95266.22
2022-10-14T01:02:43.264Z,95275.75
2022-10-14T01:05:13.158Z,95257.16
2022-10-14T01:07:59.788Z,95279.44
2022-10-14T01:10:36.696Z,95278.06
2022-10-14T01:13:22.065Z,95281.09
2022-10-14T01:16:03.793Z,95260.91
2022-10-14T01:18:52.332Z,95255.63
2022-10-14T01:21:28.004Z,95261.25
2022-10-14T01:24:13.112Z,95258.88
2022-10-14T01:26:48.990Z,95252.19
2022-10-14T01:29:34.083Z,95251.13
2022-10-14T01:32:06.585Z,95246.88
2022-10-14T01:34:41.654Z,95243.09
2022-10-14T01:37:15.397Z,95253.72
2022-10-14T01:39:51.186Z,95262.66
2022-10-14T01:42:26.217Z,95250.09
2022-10-14T01:44:59.571Z,95252.38
2022-10-14T01:47:31.313Z,95242.38
2022-10-14T01:50:02.626Z,95249.81
2022-10-14T01:52:37.783Z,95245.59
2022-10-14T01:55:11.610Z,95241.38
2022-10-14T01:57:41.912Z,95244.22
2022-10-14T02:00:09.398Z,95239.66
2022-10-14T02:02:38.091Z,95238.19
2022-10-14T02:05:10.970Z,95255.16
2022-10-14T02:07:42.999Z,95251.56
2022-10-14T02:10:12.824Z,95239.56
2022-10-14T02:13:16.380Z,95232.88
2022-10-14T02:16:06.491Z,95236.50
2022-10-14T02:18:57.620Z,95236.97
2022-10-14T02:21:30.218Z,95235.19
2022-10-14T02:24:14.268Z,95232.91
2022-10-14T02:26:42.354Z,95233.50
2022-10-14T02:29:09.186Z,95225.00
2022-10-14T02:31:40.230Z,95222.28
2022-10-14T02:34:12.088Z,95228.03
2022-10-14T02:36:41.850Z,95234.28
2022-10-14T02:39:11.917Z,95232.00
2022-10-14T02:41:39.007Z,95224.75
2022-10-14T02:44:06.670Z,95227.47
2022-10-14T02:46:34.744Z,95227.34
2022-10-14T02:49:01.664Z,95229.50
2022-10-14T02:51:28.486Z,95231.47
2022-10-14T02:53:56.326Z,95226.00
2022-10-14T02:56:23.146Z,95218.56
2022-10-14T02:58:49.804Z,95222.81
2022-10-14T03:01:16.401Z,95217.38
2022-10-14T03:03:43.156Z,95219.19
2022-10-14T03:06:10.104Z,95222.69
2022-10-14T03:08:36.905Z,95214.22
2022-10-14T03:11:03.643Z,95198.34
2022-10-14T03:13:30.580Z,95203.59
2022-10-14T03:15:58.627Z,95214.81
2022-10-14T03:18:25.818Z,95212.69
2022-10-14T03:20:52.473Z,95216.78
2022-10-14T03:23:19.125Z,95192.13
2022-10-14T03:25:46.853Z,95216.38
2022-10-14T03:28:13.714Z,95211.22
2022-10-14T03:30:40.761Z,95221.53
2022-10-14T03:33:08.416Z,95218.97
2022-10-14T03:35:35.398Z,95206.09
2022-10-14T03:38:03.486Z,95218.06
2022-10-14T03:40:30.713Z,95219.28
2022-10-14T03:43:01.462Z,95214.44
2022-10-14T03:45:28.805Z,95216.72
2022-10-14T03:47:56.050Z,95220.78
2022-10-14T03:50:23.198Z,95212.94
2022-10-14T03:52:54.616Z,95209.28
2022-10-14T03:55:22.389Z,95221.72
2022-10-14T03:57:49.143Z,95221.56
2022-10-14T04:00:16.167Z,95215.81
2022-10-14T04:02:42.977Z,95196.13
2022-10-14T04:05:10.409Z,95199.44
2022-10-14T04:07:37.330Z,95212.31
2022-10-14T04:10:04.286Z,95205.66
2022-10-14T04:12:30.945Z,95199.16
2022-10-14T04:14:57.759Z,95190.69
2022-10-14T04:17:25.538Z,95196.13
2022-10-14T04:19:53.314Z,95200.06
2022-10-14T04:22:20.413Z,95196.88
2022-10-14T04:24:47.205Z,95195.34
2022-10-14T04:27:13.833Z,95196.69
2022-10-14T04:29:40.480Z,95196.41
2022-10-14T04:32:07.252Z,95189.13
2022-10-14T04:34:33.966Z,95196.09
2022-10-14T04:37:00.611Z,95197.72
2022-10-14T04:39:27.205Z,95197.59
2022-10-14T04:41:53.859Z,95186.81
2022-10-14T04:44:20.499Z,95184.25
2022-10-14T04:46:47.221Z,95170.78
2022-10-14T04:49:14.907Z,95180.63
2022-10-14T04:51:41.621Z,95184.44
2022-10-14T04:54:08.458Z,95181.09
2022-10-14T04:56:35.106Z,95180.50
2022-10-14T04:59:02.140Z,95181.06
2022-10-14T05:01:33.635Z,95177.28
2022-10-14T05:04:00.717Z,95179.56
2022-10-14T05:06:27.521Z,95170.63
2022-10-14T05:08:54.301Z,95184.56
2022-10-14T05:11:21.235Z,95171.09
2022-10-14T05:13:47.980Z,95172.28
2022-10-14T05:16:14.665Z,95175.91
2022-10-14T05:18:41.527Z,95166.69
2022-10-14T05:21:08.250Z,95162.59
2022-10-14T05:23:34.910Z,95176.66
2022-10-14T05:26:01.529Z,95171.66
2022-10-14T05:28:28.180Z,95176.22
2022-10-14T05:30:55.819Z,95174.69
2022-10-14T05:33:22.600Z,95176.81
2022-10-14T05:36:04.635Z,95175.16
2022-10-14T05:38:33.157Z,95173.63
2022-10-14T05:41:00.859Z,95177.44
2022-10-14T05:43:32.174Z,95178.63
2022-10-14T05:45:59.759Z,95186.69
2022-10-14T05:48:26.396Z,95203.31
2022-10-14T05:50:53.240Z,95198.31
2022-10-14T05:53:20.310Z,95198.84
2022-10-14T05:55:46.924Z,95192.19
2022-10-14T05:58:13.511Z,95196.56
2022-10-14T06:00:40.180Z,95192.50
2022-10-14T06:03:06.916Z,95206.53
2022-10-14T06:05:36.687Z,95202.47
2022-10-14T06:08:03.286Z,95213.97
2022-10-14T06:10:29.917Z,95198.53
2022-10-14T06:12:57.350Z,95213.69
2022-10-14T06:15:24.033Z,95213.84
2022-10-14T06:17:50.838Z,95213.03
2022-10-14T06:20:17.569Z,95221.06
2022-10-14T06:22:44.288Z,95220.13
2022-10-14T06:25:11.077Z,95206.19
2022-10-14T06:27:37.708Z,95220.34
2022-10-14T06:30:04.900Z,95204.13
2022-10-14T06:32:31.524Z,95222.84
2022-10-14T06:34:58.371Z,95212.31
2022-10-14T06:37:25.230Z,95213.19
2022-10-14T06:39:51.997Z,95226.44
2022-10-14T06:42:18.677Z,95231.28
2022-10-14T06:44:45.405Z,95230.94
2022-10-14T06:47:12.317Z,95229.72
2022-10-14T06:49:38.994Z,95229.19
2022-10-14T06:52:05.705Z,95235.81
2022-10-14T06:54:36.769Z,95222.22
2022-10-14T06:57:06.294Z,95232.44
2022-10-14T06:59:32.981Z,95226.16
2022-10-14T07:01:59.666Z,95224.06
2022-10-14T07:04:26.489Z,95222.91
2022-10-14T07:06:53.223Z,95216.63
2022-10-14T07:09:20.249Z,95216.38
2022-10-14T07:11:47.227Z,95209.97
2022-10-14T07:14:13.871Z,95202.66
2022-10-14T07:16:43.400Z,95227.19
2022-10-14T07:19:10.109Z,95228.97
2022-10-14T07:21:36.947Z,95227.50
2022-10-14T07:24:03.971Z,95208.53
2022-10-14T07:26:31.531Z,95222.03
2022-10-14T07:28:58.724Z,95214.41
2022-10-14T07:31:26.322Z,95201.88
2022-10-14T07:33:53.200Z,95227.28
2022-10-14T07:36:22.608Z,95216.50
2022-10-14T07:38:50.177Z,95217.34
2022-10-14T07:41:20.302Z,95215.09
2022-10-14T07:43:53.304Z,95217.53
2022-10-14T07:46:34.608Z,95190.16
2022-10-14T07:49:10.803Z,95214.72
2022-10-14T07:51:38.961Z,95203.66
2022-10-14T07:54:09.989Z,95205.16
2022-10-14T07:56:37.895Z,95213.50
2022-10-14T07:59:05.020Z,95219.91
2022-10-14T08:01:32.180Z,95215.78
2022-10-14T08:03:59.080Z,95209.94
2022-10-14T08:06:26.117Z,95222.47
2022-10-14T08:08:53.076Z,95211.44
2022-10-14T08:11:26.063Z,95214.34
2022-10-14T08:13:53.573Z,95204.78
2022-10-14T08:16:26.040Z,95212.63
2022-10-14T08:18:55.184Z,95218.88
2022-10-14T08:21:21.880Z,95211.28
2022-10-14T08:23:49.317Z,95222.44
2022-10-14T08:26:21.047Z,95222.81
2022-10-14T08:28:48.886Z,95217.75
2022-10-14T08:31:16.284Z,95217.13
2022-10-14T08:33:43.171Z,95218.34
2022-10-14T08:36:10.013Z,95218.16
2022-10-14T08:38:36.623Z,95216.78
2022-10-14T08:41:12.481Z,95224.81
2022-10-14T08:43:51.187Z,95220.88
2022-10-14T08:46:31.192Z,95208.84
2022-10-14T08:49:27.153Z,95220.28
2022-10-14T08:52:01.265Z,95222.66
2022-10-14T08:54:44.416Z,95216.59
2022-10-14T08:57:21.116Z,95213.34
2022-10-14T08:59:48.579Z,95221.38
2022-10-14T09:02:30.988Z,95217.56
2022-10-14T09:05:00.240Z,95221.28
2022-10-14T09:07:27.165Z,95222.88
2022-10-14T09:09:58.569Z,95200.63
2022-10-14T09:12:29.900Z,95204.84
2022-10-14T09:15:07.896Z,95213.28
2022-10-14T09:17:46.027Z,95208.31
2022-10-14T09:20:22.242Z,95211.63
2022-10-14T09:23:05.476Z,95190.75
2022-10-14T09:25:37.538Z,95186.88
2022-10-14T09:28:04.255Z,95192.28
2022-10-14T09:30:38.062Z,95200.50
2022-10-14T09:33:05.804Z,95189.06
2022-10-14T09:35:41.289Z,95180.38
2022-10-14T09:38:08.383Z,95194.00
2022-10-14T09:40:47.676Z,95191.63
2022-10-14T09:43:19.520Z,95187.75
2022-10-14T09:45:57.090Z,95190.28
2022-10-14T09:48:42.677Z,95190.44
2022-10-14T09:51:18.117Z,95192.94
2022-10-14T09:53:49.219Z,95175.06
2022-10-14T09:56:18.053Z,95189.03
2022-10-14T09:58:51.056Z,95196.81
2022-10-14T10:01:21.588Z,95193.31
2022-10-14T10:03:49.860Z,95192.53
2022-10-14T10:06:27.175Z,95185.53
2022-10-14T10:08:53.710Z,95194.09
2022-10-14T10:11:28.321Z,95176.03
2022-10-14T10:13:55.257Z,95183.78
2022-10-14T10:16:28.126Z,95189.50
2022-10-14T10:18:56.207Z,95176.91
2022-10-14T10:21:26.382Z,95186.94
2022-10-14T10:23:59.267Z,95187.72
2022-10-14T10:26:30.700Z,95175.88
2022-10-14T10:28:58.497Z,95173.56
2022-10-14T10:32:06.550Z,95178.09
2022-10-14T10:34:59.405Z,95171.97
2022-10-14T10:37:30.061Z,95162.72
2022-10-14T10:40:26.952Z,95160.59
2022-10-14T10:43:21.796Z,95160.50
2022-10-14T10:45:50.078Z,95150.38
2022-10-14T10:48:29.527Z,95148.47
2022-10-14T10:51:08.010Z,95139.19
2022-10-14T10:53:40.956Z,95139.28
2022-10-14T10:56:22.585Z,95151.97
2022-10-14T10:59:16.889Z,95142.56
2022-10-14T11:02:38.397Z,95145.31
2022-10-14T11:05:12.568Z,95144.38
2022-10-14T11:08:38.797Z,95128.53
2022-10-14T11:11:39.524Z,95123.31
2022-10-14T11:14:08.787Z,95121.03
2022-10-14T11:17:04.912Z,95120.94
2022-10-14T11:19:46.988Z,95119.06
2022-10-14T11:22:20.348Z,95106.41
2022-10-14T11:25:18.128Z,95113.44
2022-10-14T11:27:57.322Z,95110.81
2022-10-14T11:30:27.886Z,95108.69
2022-10-14T11:33:37.387Z,95094.44
2022-10-14T11:36:43.931Z,95105.47
2022-10-14T11:39:22.722Z,95106.50
2022-10-14T11:42:11.416Z,95108.28
2022-10-14T11:44:39.952Z,95088.19
2022-10-14T11:47:28.194Z,95087.22
2022-10-14T11:50:11.721Z,95084.19
2022-10-14T11:53:13.294Z,95087.72
2022-10-14T11:55:46.499Z,95093.50
2022-10-14T11:58:24.139Z,95080.75
2022-10-14T12:01:00.869Z,95085.44
2022-10-14T12:03:37.035Z,95084.31
2022-10-14T12:06:21.355Z,95080.66
2022-10-14T12:08:55.685Z,95085.22
2022-10-14T12:11:45.497Z,95078.72
2022-10-14T12:14:20.583Z,95079.94
2022-10-14T12:16:49.271Z,95082.28
2022-10-14T12:19:27.695Z,95091.03
2022-10-14T12:22:14.860Z,95089.53
2022-10-14T12:24:45.424Z,95091.03
2022-10-14T12:27:14.764Z,95091.25
2022-10-14T12:29:44.657Z,95088.19
2022-10-14T12:32:19.724Z,95092.75
2022-10-14T12:35:01.784Z,95088.00
2022-10-14T12:37:35.471Z,95095.97
2022-10-14T12:40:02.496Z,95097.28
2022-10-14T12:42:30.997Z,95087.03
2022-10-14T12:45:01.571Z,95080.97
2022-10-14T12:47:35.382Z,95085.00
2022-10-14T12:50:14.992Z,95087.84
2022-10-14T12:52:46.495Z,95084.34
2022-10-14T12:55:17.534Z,95085.25
2022-10-14T12:57:44.820Z,95079.81
2022-10-14T13:00:24.106Z,95087.84
2022-10-14T13:02:56.418Z,95080.56
2022-10-14T13:05:37.141Z,95075.44
2022-10-14T13:08:27.495Z,95084.41
2022-10-14T13:10:59.852Z,95075.72
2022-10-14T13:13:49.469Z,95075.47
2022-10-14T13:16:16.143Z,95084.25
2022-10-14T13:18:42.690Z,95075.25
2022-10-14T13:21:21.120Z,95086.22
2022-10-14T13:23:51.517Z,95081.94
2022-10-14T13:26:20.890Z,95082.41
2022-10-14T13:28:53.696Z,95078.41
2022-10-14T13:31:26.766Z,95072.53
2022-10-14T13:34:05.332Z,95070.31
2022-10-14T13:36:39.229Z,95070.94
2022-10-14T13:39:06.040Z,95069.19
2022-10-14T13:41:34.623Z,95078.81
2022-10-14T13:44:02.416Z,95078.31
2022-10-14T13:46:41.144Z,95078.31
2022-10-14T13:51:52.963Z,95073.13
2022-10-14T13:54:23.482Z,95088.59
2022-10-14T14:02:35.873Z,95076.94
2022-10-14T14:05:02.580Z,95080.88
2022-10-14T14:10:24.447Z,95074.28
2022-10-14T14:12:51.783Z,95072.28
2022-10-14T14:15:24.828Z,95074.78
2022-10-14T14:17:52.233Z,95069.31
2022-10-14T14:20:22.035Z,95074.59
2022-10-14T14:22:48.769Z,95077.03
2022-10-14T14:25:35.740Z,95085.75
2022-10-14T14:28:06.116Z,95083.69
2022-10-14T14:30:37.748Z,95089.44
2022-10-14T14:33:10.924Z,95084.19
2022-10-14T14:35:37.893Z,95088.13
2022-10-14T14:38:04.755Z,95098.84
2022-10-14T14:40:32.193Z,95087.31
2022-10-14T14:43:04.747Z,95104.25
2022-10-14T14:45:35.405Z,95106.75
2022-10-14T14:48:04.930Z,95108.53
2022-10-14T14:50:43.142Z,95110.81
2022-10-14T14:53:18.266Z,95096.34
2022-10-14T14:55:54.057Z,95110.81
2022-10-14T14:58:49.290Z,95118.00
2022-10-14T15:01:25.050Z,95111.75
2022-10-14T15:04:12.100Z,95090.53
2022-10-14T15:07:01.813Z,95114.84
2022-10-14T15:09:43.510Z,95102.00
2022-10-14T15:12:17.369Z,95102.16
2022-10-14T15:14:51.077Z,95119.59
2022-10-14T15:17:36.378Z,95111.50
2022-10-14T15:22:51.758Z,95127.47
2022-10-14T15:25:21.244Z,95114.44
2022-10-14T15:27:53.451Z,95123.91
2022-10-14T15:30:20.490Z,95118.19
2022-10-14T15:32:48.254Z,95132.63
2022-10-14T15:35:18.330Z,95126.53
2022-10-14T15:37:46.082Z,95138.31
2022-10-14T15:40:16.129Z,95130.06
2022-10-14T15:42:42.792Z,95130.47
2022-10-14T15:45:09.952Z,95122.16
2022-10-14T15:47:37.235Z,95111.28
2022-10-14T15:50:20.427Z,95124.97
2022-10-14T15:52:47.052Z,95139.41
2022-10-14T15:55:24.941Z,95141.50
2022-10-14T15:57:52.923Z,95138.72
2022-10-14T16:00:21.536Z,95140.03
2022-10-14T16:02:54.374Z,95133.44
2022-10-14T16:05:22.202Z,95138.22
2022-10-14T16:07:49.769Z,95138.53
2022-10-14T16:10:20.725Z,95134.09
2022-10-14T16:12:48.438Z,95139.41
2022-10-14T16:15:35.974Z,95129.75
2022-10-14T16:18:02.913Z,95130.50
2022-10-14T16:20:30.854Z,95122.50
2022-10-14T16:22:58.478Z,95124.94
2022-10-14T16:25:51.853Z,95135.91
2022-10-14T16:28:18.879Z,95137.59
2022-10-14T16:30:50.274Z,95136.44
2022-10-14T16:33:23.957Z,95139.19
2022-10-14T16:35:54.834Z,95133.34
2022-10-14T16:38:22.725Z,95142.59
2022-10-14T16:40:57.893Z,95139.47
2022-10-14T16:43:27.597Z,95135.22
2022-10-14T16:45:58.289Z,95137.75
2022-10-14T16:48:25.574Z,95140.91
2022-10-14T16:50:53.489Z,95116.84
2022-10-14T16:53:39.129Z,95142.19
2022-10-14T16:56:27.081Z,95148.44
2022-10-14T16:58:53.693Z,95145.69
2022-10-14T17:01:20.621Z,95139.94
2022-10-14T17:03:47.403Z,95147.22
2022-10-14T17:06:14.055Z,95154.69
2022-10-14T17:08:41.934Z,95151.56
2022-10-14T17:11:10.183Z,95141.84
2022-10-14T17:13:37.771Z,95136.38
2022-10-14T17:16:06.015Z,95145.91
2022-10-14T17:18:35.025Z,95151.09
2022-10-14T17:21:13.675Z,95147.88
2022-10-14T17:23:42.346Z,95144.66
2022-10-14T17:26:14.253Z,95143.44
2022-10-14T17:28:42.020Z,95148.91
2022-10-14T17:31:12.390Z,95137.78
2022-10-14T17:33:40.264Z,95135.22
2022-10-14T17:36:08.209Z,95148.53
2022-10-14T17:38:35.891Z,95151.06
2022-10-14T17:41:08.117Z,95147.38
2022-10-14T17:43:35.035Z,95160.47
2022-10-14T17:48:42.320Z,95142.94
2022-10-14T17:51:12.988Z,95161.44
2022-10-14T17:53:39.957Z,95163.19
2022-10-14T17:56:08.727Z,95163.25
2022-10-14T17:58:35.852Z,95161.50
2022-10-14T18:01:07.972Z,95163.38
2022-10-14T18:03:35.696Z,95160.06
2022-10-14T18:06:14.528Z,95152.03
2022-10-14T18:08:42.963Z,95160.19
2022-10-14T18:11:11.231Z,95155.34
2022-10-14T18:16:07.763Z,95154.00
2022-10-14T18:18:35.078Z,95146.44
2022-10-14T18:21:02.976Z,95164.66
2022-10-14T18:23:30.762Z,95154.78
2022-10-14T18:26:18.321Z,95154.06
2022-10-14T18:28:48.307Z,95149.81
2022-10-14T18:31:20.431Z,95144.06
2022-10-14T18:33:48.149Z,95144.97
2022-10-14T18:36:18.418Z,95151.41
2022-10-14T18:38:53.163Z,95158.31
2022-10-14T18:41:20.737Z,95157.44
2022-10-14T18:43:48.112Z,95158.03
2022-10-14T18:46:19.981Z,95158.19
2022-10-14T18:48:52.070Z,95151.69
2022-10-14T18:51:25.660Z,95156.97
2022-10-14T18:53:59.141Z,95153.66
2022-10-14T18:56:31.836Z,95171.22
2022-10-14T18:59:07.102Z,95169.69
2022-10-14T19:01:37.009Z,95177.09
2022-10-14T19:04:05.567Z,95179.84
2022-10-14T19:06:32.921Z,95161.13
2022-10-14T19:09:02.899Z,95176.09
2022-10-14T19:11:30.321Z,95178.97
2022-10-14T19:13:58.389Z,95178.22
2022-10-14T19:16:28.203Z,95182.75
2022-10-14T19:19:08.272Z,95179.88
2022-10-14T19:21:35.310Z,95186.69
2022-10-14T19:24:02.922Z,95185.63
2022-10-14T19:26:32.184Z,95195.47
2022-10-14T19:29:06.364Z,95182.16
2022-10-14T19:31:36.245Z,95185.31
2022-10-14T19:34:06.140Z,95192.91
2022-10-14T19:36:38.606Z,95204.28
2022-10-14T19:39:06.985Z,95202.03
2022-10-14T19:41:38.421Z,95197.78
2022-10-14T19:44:05.457Z,95207.16
2022-10-14T19:46:32.165Z,95212.63
2022-10-14T19:49:02.328Z,95207.63
2022-10-14T19:51:29.248Z,95212.19
2022-10-14T19:53:56.422Z,95218.81
2022-10-14T19:56:23.359Z,95188.81
2022-10-14T19:58:54.687Z,95218.34
2022-10-14T20:01:24.391Z,95215.16
2022-10-14T20:03:52.045Z,95225.44
2022-10-14T20:06:20.435Z,95224.22
2022-10-14T20:08:47.027Z,95229.69
2022-10-14T20:11:16.481Z,95223.59
2022-10-14T20:13:46.436Z,95225.44
2022-10-14T20:16:13.465Z,95221.47
2022-10-14T20:18:40.493Z,95232.25
2022-10-14T20:21:08.719Z,95213.31
2022-10-14T20:23:38.132Z,95216.06
2022-10-14T20:26:07.401Z,95215.31
2022-10-14T20:28:38.262Z,95218.50
2022-10-14T20:31:09.900Z,95222.56
2022-10-14T20:33:36.772Z,95224.84
2022-10-14T20:36:13.738Z,95220.56
2022-10-14T20:38:41.292Z,95223.19
2022-10-14T20:41:28.180Z,95220.56
2022-10-14T20:43:56.264Z,95228.16
2022-10-14T20:46:24.945Z,95226.75
2022-10-14T20:48:58.323Z,95227.53
2022-10-14T20:51:25.480Z,95216.03
2022-10-14T20:54:01.662Z,95219.38
2022-10-14T20:56:32.887Z,95221.06
2022-10-14T20:59:01.988Z,95228.94
2022-10-14T21:01:30.023Z,95224.06
2022-10-14T21:03:56.836Z,95213.03
2022-10-14T21:06:24.820Z,95216.06
2022-10-14T21:08:52.352Z,95202.13
2022-10-14T21:11:22.265Z,95206.53
2022-10-14T21:13:51.403Z,95210.16
2022-10-14T21:16:27.065Z,95211.97
2022-10-14T21:18:57.903Z,95212.59
2022-10-14T21:21:27.522Z,95208.19
2022-10-14T21:23:55.523Z,95209.72
2022-10-14T21:26:22.801Z,95210.00
2022-10-14T21:28:49.808Z,95219.28
2022-10-14T21:31:19.031Z,95222.41
2022-10-14T21:33:54.491Z,95219.09
2022-10-14T21:36:21.374Z,95220.16
2022-10-14T21:38:48.137Z,95221.22
2022-10-14T21:41:14.776Z,95217.72
2022-10-14T21:43:42.042Z,95227.53
2022-10-14T21:46:11.542Z,95214.69
2022-10-14T21:48:38.549Z,95210.56
2022-10-14T21:51:11.558Z,95231.00
2022-10-14T21:53:40.310Z,95234.47
2022-10-14T21:56:07.642Z,95233.13
2022-10-14T21:58:35.819Z,95224.66
2022-10-14T22:01:23.135Z,95216.50
2022-10-14T22:04:01.623Z,95219.53
2022-10-14T22:06:28.729Z,95225.28
2022-10-14T22:08:57.646Z,95229.81
2022-10-14T22:11:25.800Z,95233.19
2022-10-14T22:13:54.029Z,95236.34
2022-10-14T22:16:21.293Z,95238.31
2022-10-14T22:18:50.673Z,95240.28
2022-10-14T22:21:19.949Z,95229.50
2022-10-14T22:23:47.879Z,95229.97
2022-10-14T22:26:18.625Z,95231.34
2022-10-14T22:28:45.811Z,95218.63
2022-10-14T22:31:15.643Z,95235.00
2022-10-14T22:33:43.215Z,95235.47
2022-10-14T22:36:19.401Z,95239.84
2022-10-14T22:38:50.136Z,95223.63
2022-10-14T22:41:18.120Z,95227.28
2022-10-14T22:43:49.507Z,95228.31
2022-10-14T22:46:20.153Z,95240.41
2022-10-14T22:48:48.423Z,95235.59
2022-10-14T22:51:18.004Z,95228.31
2022-10-14T22:53:45.766Z,95238.63
2022-10-14T22:56:16.504Z,95237.41
2022-10-14T22:58:43.406Z,95231.94
2022-10-14T23:01:13.564Z,95235.59
2022-10-14T23:03:41.179Z,95235.16
2022-10-14T23:06:11.083Z,95246.19
2022-10-14T23:08:38.123Z,95244.69
2022-10-14T23:11:06.453Z,95236.19
2022-10-14T23:13:33.774Z,95239.53
2022-10-14T23:16:02.729Z,95243.00
2022-10-14T23:18:32.795Z,95235.28
2022-10-14T23:20:59.536Z,95239.69
2022-10-14T23:23:26.147Z,95248.50
2022-10-14T23:25:52.907Z,95255.88
2022-10-14T23:28:19.628Z,95248.16
2022-10-14T23:30:46.451Z,95252.88
2022-10-14T23:33:13.173Z,95248.31
2022-10-14T23:35:39.846Z,95247.31
2022-10-14T23:38:06.555Z,95234.72
2022-10-14T23:40:33.712Z,95248.06
2022-10-14T23:43:01.202Z,95245.66
2022-10-14T23:45:28.175Z,95248.97
2022-10-14T23:47:54.903Z,95249.13
2022-10-14T23:50:21.676Z,95233.50
2022-10-14T23:52:48.424Z,95232.75
2022-10-14T23:55:15.230Z,95235.63
2022-10-14T23:57:41.887Z,95235.31
